sensor_id;sensor_type;location;lat;lon;timestamp;temperature;humidity
2447;DHT22;26430;48.818;9.244;2024-01-16T00:00:45;4.70;99.20
2447;DHT22;26430;48.818;9.244;2024-01-16T00:03:10;4.70;99.50
2447;DHT22;26430;48.818;9.244;2024-01-16T00:05:36;4.80;99.60
2447;DHT22;26430;48.818;9.244;2024-01-16T00:08:01;4.80;99.60
2447;DHT22;26430;48.818;9.244;2024-01-16T00:10:27;4.50;99.60
2447;DHT22;26430;48.818;9.244;2024-01-16T00:12:53;4.70;99.80
2447;DHT22;26430;48.818;9.244;2024-01-16T00:15:18;4.80;99.70
2447;DHT22;26430;48.818;9.244;2024-01-16T00:17:44;4.80;99.70
2447;DHT22;26430;48.818;9.244;2024-01-16T00:20:10;4.70;99.60
2447;DHT22;26430;48.818;9.244;2024-01-16T00:22:36;4.70;99.50
2447;DHT22;26430;48.818;9.244;2024-01-16T00:25:02;4.80;99.50
2447;DHT22;26430;48.818;9.244;2024-01-16T00:27:27;4.70;99.60
2447;DHT22;26430;48.818;9.244;2024-01-16T00:29:53;4.60;99.90
2447;DHT22;26430;48.818;9.244;2024-01-16T00:32:18;4.70;99.80
2447;DHT22;26430;48.818;9.244;2024-01-16T00:34:44;4.70;99.70
2447;DHT22;26430;48.818;9.244;2024-01-16T00:37:09;4.80;99.70
2447;DHT22;26430;48.818;9.244;2024-01-16T00:39:35;4.70;99.60
2447;DHT22;26430;48.818;9.244;2024-01-16T00:42:02;4.70;99.70
2447;DHT22;26430;48.818;9.244;2024-01-16T00:44:28;4.60;99.60
2447;DHT22;26430;48.818;9.244;2024-01-16T00:46:53;4.60;99.70
2447;DHT22;26430;48.818;9.244;2024-01-16T00:49:19;4.50;99.70
2447;DHT22;26430;48.818;9.244;2024-01-16T00:51:45;4.50;99.90
2447;DHT22;26430;48.818;9.244;2024-01-16T00:54:11;4.50;99.90
2447;DHT22;26430;48.818;9.244;2024-01-16T00:56:36;4.40;99.90
2447;DHT22;26430;48.818;9.244;2024-01-16T00:59:02;4.50;99.80
2447;DHT22;26430;48.818;9.244;2024-01-16T01:01:28;4.60;99.80
2447;DHT22;26430;48.818;9.244;2024-01-16T01:03:54;4.70;99.80
2447;DHT22;26430;48.818;9.244;2024-01-16T01:06:20;4.60;99.60
2447;DHT22;26430;48.818;9.244;2024-01-16T01:08:46;4.70;99.70
2447;DHT22;26430;48.818;9.244;2024-01-16T01:11:12;4.70;99.50
2447;DHT22;26430;48.818;9.244;2024-01-16T01:13:37;4.70;99.40
2447;DHT22;26430;48.818;9.244;2024-01-16T01:16:03;4.70;99.50
2447;DHT22;26430;48.818;9.244;2024-01-16T01:18:29;4.60;99.40
2447;DHT22;26430;48.818;9.244;2024-01-16T01:20:55;4.70;99.60
2447;DHT22;26430;48.818;9.244;2024-01-16T01:23:21;4.70;99.50
2447;DHT22;26430;48.818;9.244;2024-01-16T01:25:46;4.50;99.60
2447;DHT22;26430;48.818;9.244;2024-01-16T01:28:12;4.40;99.70
2447;DHT22;26430;48.818;9.244;2024-01-16T01:30:37;4.40;99.70
2447;DHT22;26430;48.818;9.244;2024-01-16T01:33:03;4.30;99.60
2447;DHT22;26430;48.818;9.244;2024-01-16T01:35:29;4.40;99.70
2447;DHT22;26430;48.818;9.244;2024-01-16T01:37:55;4.40;99.90
2447;DHT22;26430;48.818;9.244;2024-01-16T01:40:21;4.30;99.90
2447;DHT22;26430;48.818;9.244;2024-01-16T01:42:46;4.30;99.90
2447;DHT22;26430;48.818;9.244;2024-01-16T01:45:12;4.40;99.90
2447;DHT22;26430;48.818;9.244;2024-01-16T01:47:39;4.40;99.90
2447;DHT22;26430;48.818;9.244;2024-01-16T01:50:06;4.40;99.60
2447;DHT22;26430;48.818;9.244;2024-01-16T01:52:32;4.50;99.80
2447;DHT22;26430;48.818;9.244;2024-01-16T01:54:59;4.50;99.60
2447;DHT22;26430;48.818;9.244;2024-01-16T01:57:24;4.50;99.70
2447;DHT22;26430;48.818;9.244;2024-01-16T01:59:50;4.40;99.60
2447;DHT22;26430;48.818;9.244;2024-01-16T02:02:17;4.50;99.80
2447;DHT22;26430;48.818;9.244;2024-01-16T02:04:44;4.50;99.70
2447;DHT22;26430;48.818;9.244;2024-01-16T02:07:11;4.30;99.60
2447;DHT22;26430;48.818;9.244;2024-01-16T02:09:37;4.40;99.80
2447;DHT22;26430;48.818;9.244;2024-01-16T02:12:04;4.30;99.80
2447;DHT22;26430;48.818;9.244;2024-01-16T02:14:30;4.40;99.90
2447;DHT22;26430;48.818;9.244;2024-01-16T02:16:55;4.60;99.80
2447;DHT22;26430;48.818;9.244;2024-01-16T02:19:21;4.60;99.60
2447;DHT22;26430;48.818;9.244;2024-01-16T02:21:48;4.60;99.60
2447;DHT22;26430;48.818;9.244;2024-01-16T02:24:14;4.60;99.70
2447;DHT22;26430;48.818;9.244;2024-01-16T02:26:41;4.40;99.60
2447;DHT22;26430;48.818;9.244;2024-01-16T02:29:06;4.50;99.70
2447;DHT22;26430;48.818;9.244;2024-01-16T02:31:32;4.70;99.70
2447;DHT22;26430;48.818;9.244;2024-01-16T02:33:58;4.50;99.50
2447;DHT22;26430;48.818;9.244;2024-01-16T02:36:25;4.60;99.70
2447;DHT22;26430;48.818;9.244;2024-01-16T02:38:50;4.50;99.60
2447;DHT22;26430;48.818;9.244;2024-01-16T02:41:17;4.60;99.70
2447;DHT22;26430;48.818;9.244;2024-01-16T02:43:43;4.60;99.70
2447;DHT22;26430;48.818;9.244;2024-01-16T02:46:08;4.70;99.50
2447;DHT22;26430;48.818;9.244;2024-01-16T02:48:34;4.60;99.50
2447;DHT22;26430;48.818;9.244;2024-01-16T02:51:01;4.50;99.50
2447;DHT22;26430;48.818;9.244;2024-01-16T02:53:26;4.30;99.80
2447;DHT22;26430;48.818;9.244;2024-01-16T02:55:54;4.30;99.90
2447;DHT22;26430;48.818;9.244;2024-01-16T02:58:20;4.30;99.80
2447;DHT22;26430;48.818;9.244;2024-01-16T03:00:46;4.30;99.90
2447;DHT22;26430;48.818;9.244;2024-01-16T03:03:12;4.20;99.90
2447;DHT22;26430;48.818;9.244;2024-01-16T03:05:38;4.20;99.90
2447;DHT22;26430;48.818;9.244;2024-01-16T03:08:03;4.40;99.90
2447;DHT22;26430;48.818;9.244;2024-01-16T03:10:29;4.50;99.90
2447;DHT22;26430;48.818;9.244;2024-01-16T03:12:55;4.40;99.70
2447;DHT22;26430;48.818;9.244;2024-01-16T03:15:20;4.50;99.90
2447;DHT22;26430;48.818;9.244;2024-01-16T03:17:47;4.60;99.90
2447;DHT22;26430;48.818;9.244;2024-01-16T03:20:13;4.40;99.60
2447;DHT22;26430;48.818;9.244;2024-01-16T03:22:38;4.20;99.90
2447;DHT22;26430;48.818;9.244;2024-01-16T03:25:04;4.20;99.90
2447;DHT22;26430;48.818;9.244;2024-01-16T03:27:30;4.00;99.80
2447;DHT22;26430;48.818;9.244;2024-01-16T03:29:55;3.90;99.90
2447;DHT22;26430;48.818;9.244;2024-01-16T03:32:21;3.90;99.90
2447;DHT22;26430;48.818;9.244;2024-01-16T03:34:47;3.80;99.90
2447;DHT22;26430;48.818;9.244;2024-01-16T03:37:12;3.90;99.90
2447;DHT22;26430;48.818;9.244;2024-01-16T03:39:38;4.00;99.90
2447;DHT22;26430;48.818;9.244;2024-01-16T03:42:03;4.00;99.90
2447;DHT22;26430;48.818;9.244;2024-01-16T03:44:29;4.10;99.90
2447;DHT22;26430;48.818;9.244;2024-01-16T03:46:54;3.90;99.90
2447;DHT22;26430;48.818;9.244;2024-01-16T03:49:20;3.80;99.90
2447;DHT22;26430;48.818;9.244;2024-01-16T03:51:46;3.90;99.90
2447;DHT22;26430;48.818;9.244;2024-01-16T03:54:12;3.90;99.90
2447;DHT22;26430;48.818;9.244;2024-01-16T03:56:41;3.80;99.90
2447;DHT22;26430;48.818;9.244;2024-01-16T03:59:06;3.90;99.90
2447;DHT22;26430;48.818;9.244;2024-01-16T04:01:33;4.00;99.90
2447;DHT22;26430;48.818;9.244;2024-01-16T04:03:59;3.90;99.90
2447;DHT22;26430;48.818;9.244;2024-01-16T04:06:24;4.00;99.90
2447;DHT22;26430;48.818;9.244;2024-01-16T04:08:51;3.90;99.90
2447;DHT22;26430;48.818;9.244;2024-01-16T04:11:17;4.10;99.80
2447;DHT22;26430;48.818;9.244;2024-01-16T04:13:42;4.10;99.80
2447;DHT22;26430;48.818;9.244;2024-01-16T04:16:08;4.10;99.70
2447;DHT22;26430;48.818;9.244;2024-01-16T04:18:36;4.10;99.70
2447;DHT22;26430;48.818;9.244;2024-01-16T04:21:05;4.00;99.60
2447;DHT22;26430;48.818;9.244;2024-01-16T04:23:31;4.10;99.70
2447;DHT22;26430;48.818;9.244;2024-01-16T04:25:57;4.10;99.50
2447;DHT22;26430;48.818;9.244;2024-01-16T04:28:23;4.20;99.30
2447;DHT22;26430;48.818;9.244;2024-01-16T04:30:49;4.10;99.30
2447;DHT22;26430;48.818;9.244;2024-01-16T04:33:14;4.00;99.30
2447;DHT22;26430;48.818;9.244;2024-01-16T04:35:40;3.90;99.40
2447;DHT22;26430;48.818;9.244;2024-01-16T04:38:05;3.90;99.50
2447;DHT22;26430;48.818;9.244;2024-01-16T04:40:31;3.90;99.40
2447;DHT22;26430;48.818;9.244;2024-01-16T04:42:56;3.80;99.60
2447;DHT22;26430;48.818;9.244;2024-01-16T04:45:22;3.70;99.60
2447;DHT22;26430;48.818;9.244;2024-01-16T04:47:48;3.60;99.80
2447;DHT22;26430;48.818;9.244;2024-01-16T04:50:14;3.60;99.80
2447;DHT22;26430;48.818;9.244;2024-01-16T04:52:39;3.80;99.80
2447;DHT22;26430;48.818;9.244;2024-01-16T04:55:05;4.10;99.70
2447;DHT22;26430;48.818;9.244;2024-01-16T04:57:31;3.90;99.10
2447;DHT22;26430;48.818;9.244;2024-01-16T04:59:56;4.10;99.40
2447;DHT22;26430;48.818;9.244;2024-01-16T05:02:22;4.30;99.10
2447;DHT22;26430;48.818;9.244;2024-01-16T05:04:47;4.30;98.90
2447;DHT22;26430;48.818;9.244;2024-01-16T05:07:15;4.20;99.10
2447;DHT22;26430;48.818;9.244;2024-01-16T05:09:40;3.90;99.10
2447;DHT22;26430;48.818;9.244;2024-01-16T05:12:06;3.90;99.30
2447;DHT22;26430;48.818;9.244;2024-01-16T05:14:32;4.00;99.50
2447;DHT22;26430;48.818;9.244;2024-01-16T05:16:57;4.10;98.90
2447;DHT22;26430;48.818;9.244;2024-01-16T05:19:23;4.10;99.00
2447;DHT22;26430;48.818;9.244;2024-01-16T05:21:48;4.20;98.80
2447;DHT22;26430;48.818;9.244;2024-01-16T05:24:14;4.00;98.70
2447;DHT22;26430;48.818;9.244;2024-01-16T05:26:39;4.00;98.80
2447;DHT22;26430;48.818;9.244;2024-01-16T05:29:05;4.00;98.60
2447;DHT22;26430;48.818;9.244;2024-01-16T05:31:30;4.20;98.80
2447;DHT22;26430;48.818;9.244;2024-01-16T05:33:56;4.10;98.40
2447;DHT22;26430;48.818;9.244;2024-01-16T05:36:23;4.00;98.40
2447;DHT22;26430;48.818;9.244;2024-01-16T05:38:49;4.10;98.50
2447;DHT22;26430;48.818;9.244;2024-01-16T05:41:15;4.10;98.30
2447;DHT22;26430;48.818;9.244;2024-01-16T05:43:41;4.30;98.40
2447;DHT22;26430;48.818;9.244;2024-01-16T05:46:07;4.30;98.10
2447;DHT22;26430;48.818;9.244;2024-01-16T05:48:32;4.30;97.90
2447;DHT22;26430;48.818;9.244;2024-01-16T05:50:58;4.40;98.10
2447;DHT22;26430;48.818;9.244;2024-01-16T05:53:23;4.40;97.90
2447;DHT22;26430;48.818;9.244;2024-01-16T05:55:49;4.40;98.00
2447;DHT22;26430;48.818;9.244;2024-01-16T05:58:14;4.20;98.10
2447;DHT22;26430;48.818;9.244;2024-01-16T06:00:40;4.00;98.10
2447;DHT22;26430;48.818;9.244;2024-01-16T06:03:06;4.10;98.20
2447;DHT22;26430;48.818;9.244;2024-01-16T06:05:31;4.10;98.20
2447;DHT22;26430;48.818;9.244;2024-01-16T06:07:57;4.00;98.30
2447;DHT22;26430;48.818;9.244;2024-01-16T06:10:22;4.10;98.20
2447;DHT22;26430;48.818;9.244;2024-01-16T06:12:48;4.00;98.20
2447;DHT22;26430;48.818;9.244;2024-01-16T06:15:13;4.00;97.90
2447;DHT22;26430;48.818;9.244;2024-01-16T06:17:39;4.00;98.10
2447;DHT22;26430;48.818;9.244;2024-01-16T06:20:05;3.90;98.30
2447;DHT22;26430;48.818;9.244;2024-01-16T06:22:31;4.00;98.10
2447;DHT22;26430;48.818;9.244;2024-01-16T06:24:57;4.10;98.10
2447;DHT22;26430;48.818;9.244;2024-01-16T06:27:23;4.10;98.00
2447;DHT22;26430;48.818;9.244;2024-01-16T06:29:48;4.10;97.80
2447;DHT22;26430;48.818;9.244;2024-01-16T06:32:14;4.20;97.70
2447;DHT22;26430;48.818;9.244;2024-01-16T06:34:40;4.10;97.40
2447;DHT22;26430;48.818;9.244;2024-01-16T06:37:05;4.20;97.60
2447;DHT22;26430;48.818;9.244;2024-01-16T06:39:31;4.30;97.40
2447;DHT22;26430;48.818;9.244;2024-01-16T06:41:56;4.20;97.20
2447;DHT22;26430;48.818;9.244;2024-01-16T06:44:22;4.20;97.30
2447;DHT22;26430;48.818;9.244;2024-01-16T06:46:47;4.20;97.30
2447;DHT22;26430;48.818;9.244;2024-01-16T06:49:13;4.00;97.20
2447;DHT22;26430;48.818;9.244;2024-01-16T06:51:39;4.00;97.30
2447;DHT22;26430;48.818;9.244;2024-01-16T06:54:04;4.00;97.20
2447;DHT22;26430;48.818;9.244;2024-01-16T06:56:30;3.80;97.40
2447;DHT22;26430;48.818;9.244;2024-01-16T06:58:55;3.90;97.60
2447;DHT22;26430;48.818;9.244;2024-01-16T07:01:21;4.00;97.40
2447;DHT22;26430;48.818;9.244;2024-01-16T07:03:47;4.10;97.30
2447;DHT22;26430;48.818;9.244;2024-01-16T07:06:12;4.30;96.90
2447;DHT22;26430;48.818;9.244;2024-01-16T07:08:38;4.20;96.90
2447;DHT22;26430;48.818;9.244;2024-01-16T07:11:04;4.00;96.60
2447;DHT22;26430;48.818;9.244;2024-01-16T07:13:33;4.20;97.00
2447;DHT22;26430;48.818;9.244;2024-01-16T07:15:59;4.10;96.70
2447;DHT22;26430;48.818;9.244;2024-01-16T07:18:27;4.10;96.70
2447;DHT22;26430;48.818;9.244;2024-01-16T07:20:52;3.80;96.80
2447;DHT22;26430;48.818;9.244;2024-01-16T07:23:18;3.80;96.80
2447;DHT22;26430;48.818;9.244;2024-01-16T07:25:43;3.70;97.10
2447;DHT22;26430;48.818;9.244;2024-01-16T07:28:09;3.70;97.30
2447;DHT22;26430;48.818;9.244;2024-01-16T07:30:35;3.50;97.20
2447;DHT22;26430;48.818;9.244;2024-01-16T07:33:00;3.60;97.40
2447;DHT22;26430;48.818;9.244;2024-01-16T07:35:26;3.60;97.10
2447;DHT22;26430;48.818;9.244;2024-01-16T07:37:51;3.80;97.00
2447;DHT22;26430;48.818;9.244;2024-01-16T07:40:17;3.80;96.60
2447;DHT22;26430;48.818;9.244;2024-01-16T07:42:43;3.90;96.60
2447;DHT22;26430;48.818;9.244;2024-01-16T07:45:08;4.00;96.50
2447;DHT22;26430;48.818;9.244;2024-01-16T07:47:34;3.80;96.30
2447;DHT22;26430;48.818;9.244;2024-01-16T07:50:01;3.90;96.00
2447;DHT22;26430;48.818;9.244;2024-01-16T07:52:27;3.90;96.10
2447;DHT22;26430;48.818;9.244;2024-01-16T07:54:53;3.90;96.30
2447;DHT22;26430;48.818;9.244;2024-01-16T07:57:19;3.80;96.50
2447;DHT22;26430;48.818;9.244;2024-01-16T07:59:45;4.00;96.60
2447;DHT22;26430;48.818;9.244;2024-01-16T08:02:10;3.90;96.20
2447;DHT22;26430;48.818;9.244;2024-01-16T08:04:36;4.00;96.60
2447;DHT22;26430;48.818;9.244;2024-01-16T08:07:02;4.00;96.40
2447;DHT22;26430;48.818;9.244;2024-01-16T08:09:27;4.00;96.20
2447;DHT22;26430;48.818;9.244;2024-01-16T08:11:53;3.70;96.20
2447;DHT22;26430;48.818;9.244;2024-01-16T08:14:18;3.90;96.40
2447;DHT22;26430;48.818;9.244;2024-01-16T08:16:44;3.90;96.10
2447;DHT22;26430;48.818;9.244;2024-01-16T08:19:09;3.90;96.20
2447;DHT22;26430;48.818;9.244;2024-01-16T08:21:35;3.90;96.30
2447;DHT22;26430;48.818;9.244;2024-01-16T08:24:01;3.90;96.20
2447;DHT22;26430;48.818;9.244;2024-01-16T08:26:27;4.00;96.30
2447;DHT22;26430;48.818;9.244;2024-01-16T08:28:53;4.00;96.00
2447;DHT22;26430;48.818;9.244;2024-01-16T08:31:19;4.00;95.90
2447;DHT22;26430;48.818;9.244;2024-01-16T08:33:45;4.10;95.80
2447;DHT22;26430;48.818;9.244;2024-01-16T08:36:12;4.00;95.60
2447;DHT22;26430;48.818;9.244;2024-01-16T08:38:38;4.00;95.30
2447;DHT22;26430;48.818;9.244;2024-01-16T08:41:04;4.10;95.40
2447;DHT22;26430;48.818;9.244;2024-01-16T08:43:35;4.00;95.30
2447;DHT22;26430;48.818;9.244;2024-01-16T08:46:00;4.00;95.50
2447;DHT22;26430;48.818;9.244;2024-01-16T08:48:26;4.10;95.50
2447;DHT22;26430;48.818;9.244;2024-01-16T08:50:52;4.00;95.30
2447;DHT22;26430;48.818;9.244;2024-01-16T08:53:19;4.20;95.40
2447;DHT22;26430;48.818;9.244;2024-01-16T08:55:45;4.30;95.20
2447;DHT22;26430;48.818;9.244;2024-01-16T08:58:10;4.40;95.10
2447;DHT22;26430;48.818;9.244;2024-01-16T09:00:36;4.50;95.10
2447;DHT22;26430;48.818;9.244;2024-01-16T09:03:03;4.40;94.90
2447;DHT22;26430;48.818;9.244;2024-01-16T09:05:29;4.50;94.80
2447;DHT22;26430;48.818;9.244;2024-01-16T09:07:55;4.50;94.80
2447;DHT22;26430;48.818;9.244;2024-01-16T09:10:20;4.50;94.70
2447;DHT22;26430;48.818;9.244;2024-01-16T09:12:46;4.60;94.50
2447;DHT22;26430;48.818;9.244;2024-01-16T09:15:11;4.60;94.50
2447;DHT22;26430;48.818;9.244;2024-01-16T09:17:37;4.60;94.50
2447;DHT22;26430;48.818;9.244;2024-01-16T09:20:05;4.50;94.50
2447;DHT22;26430;48.818;9.244;2024-01-16T09:22:32;4.50;94.50
2447;DHT22;26430;48.818;9.244;2024-01-16T09:24:57;4.50;94.40
2447;DHT22;26430;48.818;9.244;2024-01-16T09:27:23;4.60;94.20
2447;DHT22;26430;48.818;9.244;2024-01-16T09:29:48;4.60;94.30
2447;DHT22;26430;48.818;9.244;2024-01-16T09:32:14;4.60;94.40
2447;DHT22;26430;48.818;9.244;2024-01-16T09:34:40;4.60;94.40
2447;DHT22;26430;48.818;9.244;2024-01-16T09:37:05;4.50;94.80
2447;DHT22;26430;48.818;9.244;2024-01-16T09:39:31;4.50;94.80
2447;DHT22;26430;48.818;9.244;2024-01-16T09:41:59;4.60;94.70
2447;DHT22;26430;48.818;9.244;2024-01-16T09:44:27;4.70;94.30
2447;DHT22;26430;48.818;9.244;2024-01-16T09:46:54;4.70;94.50
2447;DHT22;26430;48.818;9.244;2024-01-16T09:49:21;4.80;94.30
2447;DHT22;26430;48.818;9.244;2024-01-16T09:51:47;4.60;94.30
2447;DHT22;26430;48.818;9.244;2024-01-16T09:54:12;4.80;94.40
2447;DHT22;26430;48.818;9.244;2024-01-16T09:56:42;4.70;94.30
2447;DHT22;26430;48.818;9.244;2024-01-16T09:59:09;4.70;94.10
2447;DHT22;26430;48.818;9.244;2024-01-16T10:01:36;4.70;94.00
2447;DHT22;26430;48.818;9.244;2024-01-16T10:04:02;4.70;94.00
2447;DHT22;26430;48.818;9.244;2024-01-16T10:06:29;4.70;94.00
2447;DHT22;26430;48.818;9.244;2024-01-16T10:08:56;4.60;94.40
2447;DHT22;26430;48.818;9.244;2024-01-16T10:11:22;4.60;94.30
2447;DHT22;26430;48.818;9.244;2024-01-16T10:13:48;4.50;94.70
2447;DHT22;26430;48.818;9.244;2024-01-16T10:16:13;4.70;94.60
2447;DHT22;26430;48.818;9.244;2024-01-16T10:18:39;4.80;94.80
2447;DHT22;26430;48.818;9.244;2024-01-16T10:21:05;4.80;94.60
2447;DHT22;26430;48.818;9.244;2024-01-16T10:23:41;4.70;94.70
2447;DHT22;26430;48.818;9.244;2024-01-16T10:26:10;4.80;94.80
2447;DHT22;26430;48.818;9.244;2024-01-16T10:28:39;4.80;94.60
2447;DHT22;26430;48.818;9.244;2024-01-16T10:31:06;4.90;94.80
2447;DHT22;26430;48.818;9.244;2024-01-16T10:33:32;4.90;94.80
2447;DHT22;26430;48.818;9.244;2024-01-16T10:36:12;5.00;94.80
2447;DHT22;26430;48.818;9.244;2024-01-16T10:38:41;4.90;94.80
2447;DHT22;26430;48.818;9.244;2024-01-16T10:41:10;5.00;94.70
2447;DHT22;26430;48.818;9.244;2024-01-16T10:43:36;5.00;95.10
2447;DHT22;26430;48.818;9.244;2024-01-16T10:46:15;5.00;94.90
2447;DHT22;26430;48.818;9.244;2024-01-16T10:48:43;5.00;94.70
2447;DHT22;26430;48.818;9.244;2024-01-16T10:51:18;5.10;94.80
2447;DHT22;26430;48.818;9.244;2024-01-16T10:53:45;5.20;94.70
2447;DHT22;26430;48.818;9.244;2024-01-16T10:56:13;5.10;95.10
2447;DHT22;26430;48.818;9.244;2024-01-16T10:58:42;5.10;94.70
2447;DHT22;26430;48.818;9.244;2024-01-16T11:01:11;5.20;95.20
2447;DHT22;26430;48.818;9.244;2024-01-16T11:03:47;5.40;95.60
2447;DHT22;26430;48.818;9.244;2024-01-16T11:06:18;5.50;95.40
2447;DHT22;26430;48.818;9.244;2024-01-16T11:08:48;5.50;94.90
2447;DHT22;26430;48.818;9.244;2024-01-16T11:11:14;5.70;95.40
2447;DHT22;26430;48.818;9.244;2024-01-16T11:13:40;5.80;95.60
2447;DHT22;26430;48.818;9.244;2024-01-16T11:16:10;5.90;95.40
2447;DHT22;26430;48.818;9.244;2024-01-16T11:18:36;6.00;95.10
2447;DHT22;26430;48.818;9.244;2024-01-16T11:21:07;6.00;94.70
2447;DHT22;26430;48.818;9.244;2024-01-16T11:23:34;6.10;94.90
2447;DHT22;26430;48.818;9.244;2024-01-16T11:26:30;6.20;95.40
2447;DHT22;26430;48.818;9.244;2024-01-16T11:29:00;6.30;95.70
2447;DHT22;26430;48.818;9.244;2024-01-16T11:33:54;6.40;95.20
2447;DHT22;26430;48.818;9.244;2024-01-16T11:39:07;6.40;93.40
2447;DHT22;26430;48.818;9.244;2024-01-16T11:47:05;6.60;94.10
2447;DHT22;26430;48.818;9.244;2024-01-16T11:49:32;6.70;95.50
2447;DHT22;26430;48.818;9.244;2024-01-16T11:51:58;6.80;95.70
2447;DHT22;26430;48.818;9.244;2024-01-16T11:54:24;6.70;94.30
2447;DHT22;26430;48.818;9.244;2024-01-16T11:57:26;6.80;93.90
2447;DHT22;26430;48.818;9.244;2024-01-16T12:00:03;6.80;95.00
2447;DHT22;26430;48.818;9.244;2024-01-16T12:02:53;6.80;94.30
2447;DHT22;26430;48.818;9.244;2024-01-16T12:05:21;6.80;94.60
2447;DHT22;26430;48.818;9.244;2024-01-16T12:07:49;6.90;95.20
2447;DHT22;26430;48.818;9.244;2024-01-16T12:10:20;7.00;95.20
2447;DHT22;26430;48.818;9.244;2024-01-16T12:12:46;7.10;94.90
2447;DHT22;26430;48.818;9.244;2024-01-16T12:15:21;7.10;95.10
2447;DHT22;26430;48.818;9.244;2024-01-16T12:17:57;7.20;95.10
2447;DHT22;26430;48.818;9.244;2024-01-16T12:20:25;7.20;95.10
2447;DHT22;26430;48.818;9.244;2024-01-16T12:22:55;7.20;94.20
2447;DHT22;26430;48.818;9.244;2024-01-16T12:25:20;7.20;93.90
2447;DHT22;26430;48.818;9.244;2024-01-16T12:27:57;7.20;93.30
2447;DHT22;26430;48.818;9.244;2024-01-16T12:30:26;7.20;94.80
2447;DHT22;26430;48.818;9.244;2024-01-16T12:33:14;7.30;94.90
2447;DHT22;26430;48.818;9.244;2024-01-16T12:35:41;7.30;94.90
2447;DHT22;26430;48.818;9.244;2024-01-16T12:38:09;7.30;94.70
2447;DHT22;26430;48.818;9.244;2024-01-16T12:40:36;7.40;94.80
2447;DHT22;26430;48.818;9.244;2024-01-16T12:43:03;7.40;94.90
2447;DHT22;26430;48.818;9.244;2024-01-16T12:45:29;7.40;94.80
2447;DHT22;26430;48.818;9.244;2024-01-16T12:47:55;7.40;94.70
2447;DHT22;26430;48.818;9.244;2024-01-16T12:50:25;7.40;94.60
2447;DHT22;26430;48.818;9.244;2024-01-16T12:53:05;7.40;94.10
2447;DHT22;26430;48.818;9.244;2024-01-16T12:55:32;7.40;94.60
2447;DHT22;26430;48.818;9.244;2024-01-16T13:00:49;7.50;94.00
2447;DHT22;26430;48.818;9.244;2024-01-16T13:03:24;7.50;94.40
2447;DHT22;26430;48.818;9.244;2024-01-16T13:05:56;7.50;94.40
2447;DHT22;26430;48.818;9.244;2024-01-16T13:08:22;7.50;93.90
2447;DHT22;26430;48.818;9.244;2024-01-16T13:11:07;7.50;93.80
2447;DHT22;26430;48.818;9.244;2024-01-16T13:13:33;7.50;94.20
2447;DHT22;26430;48.818;9.244;2024-01-16T13:16:00;7.50;94.30
2447;DHT22;26430;48.818;9.244;2024-01-16T13:18:28;7.60;93.70
2447;DHT22;26430;48.818;9.244;2024-01-16T13:20:55;7.60;93.90
2447;DHT22;26430;48.818;9.244;2024-01-16T13:23:21;7.60;93.70
2447;DHT22;26430;48.818;9.244;2024-01-16T13:25:48;7.50;93.20
2447;DHT22;26430;48.818;9.244;2024-01-16T13:28:18;7.60;93.70
2447;DHT22;26430;48.818;9.244;2024-01-16T13:30:45;7.50;93.40
2447;DHT22;26430;48.818;9.244;2024-01-16T13:33:11;7.50;92.10
2447;DHT22;26430;48.818;9.244;2024-01-16T13:35:44;7.50;91.80
2447;DHT22;26430;48.818;9.244;2024-01-16T13:38:11;7.40;92.30
2447;DHT22;26430;48.818;9.244;2024-01-16T13:40:37;7.40;92.10
2447;DHT22;26430;48.818;9.244;2024-01-16T13:43:04;7.50;93.40
2447;DHT22;26430;48.818;9.244;2024-01-16T13:45:30;7.50;92.90
2447;DHT22;26430;48.818;9.244;2024-01-16T13:47:56;7.50;92.60
2447;DHT22;26430;48.818;9.244;2024-01-16T13:50:22;7.50;91.50
2447;DHT22;26430;48.818;9.244;2024-01-16T13:52:48;7.40;90.90
2447;DHT22;26430;48.818;9.244;2024-01-16T13:55:17;7.40;91.20
2447;DHT22;26430;48.818;9.244;2024-01-16T13:57:43;7.40;91.60
2447;DHT22;26430;48.818;9.244;2024-01-16T14:00:11;7.40;91.10
2447;DHT22;26430;48.818;9.244;2024-01-16T14:02:39;7.40;91.10
2447;DHT22;26430;48.818;9.244;2024-01-16T14:05:08;7.30;90.20
2447;DHT22;26430;48.818;9.244;2024-01-16T14:07:39;7.30;91.10
2447;DHT22;26430;48.818;9.244;2024-01-16T14:10:08;7.40;91.80
2447;DHT22;26430;48.818;9.244;2024-01-16T14:12:41;7.30;91.00
2447;DHT22;26430;48.818;9.244;2024-01-16T14:15:11;7.20;89.30
2447;DHT22;26430;48.818;9.244;2024-01-16T14:17:50;7.30;90.50
2447;DHT22;26430;48.818;9.244;2024-01-16T14:20:17;7.20;89.90
2447;DHT22;26430;48.818;9.244;2024-01-16T14:22:43;7.30;90.50
2447;DHT22;26430;48.818;9.244;2024-01-16T14:25:10;7.20;88.20
2447;DHT22;26430;48.818;9.244;2024-01-16T14:27:40;7.10;87.80
2447;DHT22;26430;48.818;9.244;2024-01-16T14:30:07;7.20;90.20
2447;DHT22;26430;48.818;9.244;2024-01-16T14:32:36;7.20;90.20
2447;DHT22;26430;48.818;9.244;2024-01-16T14:35:04;7.20;88.70
2447;DHT22;26430;48.818;9.244;2024-01-16T14:37:30;7.10;89.20
2447;DHT22;26430;48.818;9.244;2024-01-16T14:39:56;7.10;87.90
2447;DHT22;26430;48.818;9.244;2024-01-16T14:42:22;7.00;86.80
2447;DHT22;26430;48.818;9.244;2024-01-16T14:44:48;7.00;87.80
2447;DHT22;26430;48.818;9.244;2024-01-16T14:47:13;6.90;86.30
2447;DHT22;26430;48.818;9.244;2024-01-16T14:49:39;6.80;86.10
2447;DHT22;26430;48.818;9.244;2024-01-16T14:52:04;6.80;88.40
2447;DHT22;26430;48.818;9.244;2024-01-16T14:54:32;6.90;88.30
2447;DHT22;26430;48.818;9.244;2024-01-16T14:56:58;6.80;86.80
2447;DHT22;26430;48.818;9.244;2024-01-16T14:59:24;6.70;85.80
2447;DHT22;26430;48.818;9.244;2024-01-16T15:01:50;6.50;86.00
2447;DHT22;26430;48.818;9.244;2024-01-16T15:04:18;6.50;87.50
2447;DHT22;26430;48.818;9.244;2024-01-16T15:06:44;6.60;87.30
2447;DHT22;26430;48.818;9.244;2024-01-16T15:09:09;6.60;87.60
2447;DHT22;26430;48.818;9.244;2024-01-16T15:11:38;6.70;87.70
2447;DHT22;26430;48.818;9.244;2024-01-16T15:14:03;6.70;87.40
2447;DHT22;26430;48.818;9.244;2024-01-16T15:16:29;6.70;86.90
2447;DHT22;26430;48.818;9.244;2024-01-16T15:18:55;6.70;86.90
2447;DHT22;26430;48.818;9.244;2024-01-16T15:21:22;6.70;87.30
2447;DHT22;26430;48.818;9.244;2024-01-16T15:23:48;6.70;86.80
2447;DHT22;26430;48.818;9.244;2024-01-16T15:26:13;6.70;86.40
2447;DHT22;26430;48.818;9.244;2024-01-16T15:28:45;6.60;85.40
2447;DHT22;26430;48.818;9.244;2024-01-16T15:31:11;6.50;85.60
2447;DHT22;26430;48.818;9.244;2024-01-16T15:33:38;6.50;86.30
2447;DHT22;26430;48.818;9.244;2024-01-16T15:36:04;6.30;86.60
2447;DHT22;26430;48.818;9.244;2024-01-16T15:38:31;6.30;87.00
2447;DHT22;26430;48.818;9.244;2024-01-16T15:40:57;6.30;86.50
2447;DHT22;26430;48.818;9.244;2024-01-16T15:43:23;6.10;86.60
2447;DHT22;26430;48.818;9.244;2024-01-16T15:45:48;6.00;86.30
2447;DHT22;26430;48.818;9.244;2024-01-16T15:48:14;6.00;87.00
2447;DHT22;26430;48.818;9.244;2024-01-16T15:50:40;6.00;87.00
2447;DHT22;26430;48.818;9.244;2024-01-16T15:53:05;5.90;86.70
2447;DHT22;26430;48.818;9.244;2024-01-16T15:55:31;5.80;86.60
2447;DHT22;26430;48.818;9.244;2024-01-16T15:57:57;5.70;86.80
2447;DHT22;26430;48.818;9.244;2024-01-16T16:00:23;5.60;87.10
2447;DHT22;26430;48.818;9.244;2024-01-16T16:02:49;5.60;87.90
2447;DHT22;26430;48.818;9.244;2024-01-16T16:05:15;5.50;87.60
2447;DHT22;26430;48.818;9.244;2024-01-16T16:07:41;5.60;88.40
2447;DHT22;26430;48.818;9.244;2024-01-16T16:10:07;5.50;88.50
2447;DHT22;26430;48.818;9.244;2024-01-16T16:12:32;5.50;88.70